createdAt,value
2018-12-30T00:00:03.623Z,29.67
2018-12-30T00:02:30.129Z,24.97
2018-12-30T00:04:56.775Z,26.83
2018-12-30T00:07:23.534Z,24.77
2018-12-30T00:09:50.208Z,25.63
2018-12-30T00:12:16.853Z,26.80
2018-12-30T00:14:43.722Z,27.13
2018-12-30T00:17:10.102Z,27.70
2018-12-30T00:19:45.334Z,30.43
2018-12-30T00:22:04.968Z,26.40
2018-12-30T00:24:31.424Z,26.80
2018-12-30T00:26:57.896Z,23.03
2018-12-30T00:29:24.448Z,27.63
2018-12-30T00:31:50.912Z,21.90
2018-12-30T00:34:17.365Z,24.07
2018-12-30T00:36:43.836Z,21.33
2018-12-30T00:39:10.712Z,20.70
2018-12-30T00:41:37.180Z,23.77
2018-12-30T00:44:03.640Z,19.47
2018-12-30T00:46:30.206Z,19.97
2018-12-30T00:48:56.756Z,23.27
2018-12-30T00:51:23.232Z,23.70
2018-12-30T00:53:49.678Z,20.87
2018-12-30T00:56:16.443Z,23.07
2018-12-30T00:58:42.896Z,22.07
2018-12-30T01:01:09.520Z,24.17
2018-12-30T01:03:36.015Z,23.80
2018-12-30T01:06:02.567Z,21.70
2018-12-30T01:08:29.038Z,27.37
2018-12-30T01:10:55.494Z,22.67
2018-12-30T01:13:22.265Z,22.87
2018-12-30T01:15:48.815Z,24.33
2018-12-30T01:18:15.215Z,25.73
2018-12-30T01:20:41.737Z,22.50
2018-12-30T01:23:08.203Z,22.57
2018-12-30T01:25:34.660Z,22.70
2018-12-30T01:28:01.434Z,24.70
2018-12-30T01:30:27.997Z,26.20
2018-12-30T01:32:54.605Z,22.67
2018-12-30T01:35:21.168Z,21.37
2018-12-30T01:37:47.556Z,22.13
2018-12-30T01:40:13.904Z,21.47
2018-12-30T01:42:40.378Z,28.60
2018-12-30T01:45:07.135Z,24.63
2018-12-30T01:47:33.681Z,24.10
2018-12-30T01:50:00.150Z,26.47
2018-12-30T01:52:26.743Z,29.87
2018-12-30T01:54:53.232Z,32.33
2018-12-30T01:57:19.788Z,32.50
2018-12-30T01:59:46.270Z,25.90
2018-12-30T02:02:12.749Z,35.10
2018-12-30T02:04:39.361Z,36.60
2018-12-30T02:07:05.815Z,31.20
2018-12-30T02:09:32.383Z,31.83
2018-12-30T02:11:58.948Z,31.70
2018-12-30T02:14:25.538Z,34.43
2018-12-30T02:16:52.292Z,30.47
2018-12-30T02:19:18.769Z,26.73
2018-12-30T02:21:45.320Z,26.73
2018-12-30T02:24:11.809Z,32.90
2018-12-30T02:26:38.260Z,29.77
2018-12-30T02:29:04.713Z,27.80
2018-12-30T02:31:31.390Z,30.43
2018-12-30T02:33:57.876Z,30.33
2018-12-30T02:36:24.351Z,30.60
2018-12-30T02:38:50.908Z,28.47
2018-12-30T02:41:17.283Z,26.73
2018-12-30T02:43:43.727Z,27.07
2018-12-30T02:46:10.420Z,31.60
2018-12-30T02:48:36.870Z,28.33
2018-12-30T02:51:03.456Z,27.00
2018-12-30T02:53:29.918Z,29.77
2018-12-30T02:55:56.392Z,28.80
2018-12-30T02:58:22.775Z,27.00
2018-12-30T03:00:49.543Z,26.10
2018-12-30T03:03:15.913Z,26.93
2018-12-30T03:05:42.435Z,28.10
2018-12-30T03:08:08.951Z,25.67
2018-12-30T03:10:35.669Z,23.30
2018-12-30T03:13:02.025Z,20.93
2018-12-30T03:15:28.401Z,24.93
2018-12-30T03:17:54.857Z,20.17
2018-12-30T03:20:21.321Z,16.07
2018-12-30T03:22:47.792Z,14.33
2018-12-30T03:25:14.253Z,17.03
2018-12-30T03:27:40.732Z,16.93
2018-12-30T03:30:07.265Z,15.00
2018-12-30T03:32:33.741Z,13.90
2018-12-30T03:35:00.199Z,12.43
2018-12-30T03:37:26.675Z,10.73
2018-12-30T03:39:53.248Z,11.97
2018-12-30T03:42:20.407Z,11.93
2018-12-30T03:44:46.993Z,9.53
2018-12-30T03:47:13.566Z,9.93
2018-12-30T03:49:40.021Z,10.67
2018-12-30T03:52:08.650Z,12.37
2018-12-30T03:54:34.771Z,11.43
2018-12-30T03:57:01.340Z,12.63
2018-12-30T03:59:27.801Z,10.83
2018-12-30T04:01:54.301Z,13.27
2018-12-30T04:04:20.702Z,13.17
2018-12-30T04:06:47.087Z,13.13
2018-12-30T04:09:13.544Z,13.60
2018-12-30T04:11:40.003Z,16.60
2018-12-30T04:14:06.375Z,16.03
2018-12-30T04:16:32.847Z,17.97
2018-12-30T04:18:59.240Z,13.13
2018-12-30T04:21:25.788Z,18.03
2018-12-30T04:23:52.264Z,17.17
2018-12-30T04:26:18.640Z,23.43
2018-12-30T04:28:45.214Z,20.40
2018-12-30T04:31:11.596Z,22.60
2018-12-30T04:33:38.075Z,26.53
2018-12-30T04:36:04.525Z,32.83
2018-12-30T04:38:30.890Z,29.03
2018-12-30T04:40:57.253Z,23.90
2018-12-30T04:43:23.646Z,30.63
2018-12-30T04:45:50.092Z,30.20
2018-12-30T04:48:16.672Z,25.60
2018-12-30T04:50:43.122Z,32.37
2018-12-30T04:53:09.596Z,22.83
2018-12-30T04:55:36.056Z,34.37
2018-12-30T04:58:02.521Z,25.53
2018-12-30T05:00:28.868Z,30.50
2018-12-30T05:02:55.460Z,31.57
2018-12-30T05:05:23.283Z,26.60
2018-12-30T05:07:49.917Z,36.40
2018-12-30T05:10:16.278Z,24.63
2018-12-30T05:12:42.723Z,29.50
2018-12-30T05:15:09.303Z,28.57
2018-12-30T05:17:35.854Z,25.63
2018-12-30T05:20:02.934Z,23.43
2018-12-30T05:22:33.864Z,24.83
2018-12-30T05:24:57.784Z,28.17
2018-12-30T05:27:24.167Z,28.10
2018-12-30T05:29:50.639Z,29.67
2018-12-30T05:32:17.089Z,29.13
2018-12-30T05:34:43.564Z,24.77
2018-12-30T05:37:10.021Z,26.70
2018-12-30T05:39:36.424Z,31.15
2018-12-30T05:42:03.000Z,20.23
2018-12-30T05:44:29.471Z,22.63
2018-12-30T05:46:55.919Z,21.33
2018-12-30T05:49:22.492Z,27.60
2018-12-30T05:51:48.856Z,22.27
2018-12-30T05:54:15.471Z,21.77
2018-12-30T05:56:42.020Z,22.10
2018-12-30T05:59:08.496Z,20.97
2018-12-30T06:01:34.944Z,22.80
2018-12-30T06:04:01.340Z,21.83
2018-12-30T06:06:27.892Z,18.10
2018-12-30T06:08:54.339Z,19.83
2018-12-30T06:11:20.817Z,18.43
2018-12-30T06:13:47.269Z,21.90
2018-12-30T06:16:13.737Z,26.93
2018-12-30T06:18:40.196Z,25.90
2018-12-30T06:21:06.769Z,21.13
2018-12-30T06:23:33.144Z,22.30
2018-12-30T06:25:59.613Z,16.90
2018-12-30T06:28:26.068Z,23.23
2018-12-30T06:30:52.601Z,19.60
2018-12-30T06:33:19.028Z,18.13
2018-12-30T06:35:45.400Z,12.27
2018-12-30T06:38:11.751Z,17.40
2018-12-30T06:40:38.368Z,14.17
2018-12-30T06:43:04.924Z,17.37
2018-12-30T06:45:31.506Z,16.17
2018-12-30T06:47:58.055Z,17.63
2018-12-30T06:50:24.542Z,21.67
2018-12-30T06:52:57.644Z,16.03
2018-12-30T06:55:19.477Z,12.70
2018-12-30T06:57:45.919Z,15.13
2018-12-30T07:00:12.407Z,17.93
2018-12-30T07:02:38.857Z,11.03
2018-12-30T07:05:05.372Z,19.43
2018-12-30T07:07:31.946Z,22.73
2018-12-30T07:09:58.720Z,13.60
2018-12-30T07:12:25.126Z,18.00
2018-12-30T07:14:51.645Z,15.00
2018-12-30T07:17:18.133Z,22.57
2018-12-30T07:19:45.407Z,12.93
2018-12-30T07:22:12.288Z,15.13
2018-12-30T07:24:38.844Z,15.77
2018-12-30T07:27:05.483Z,18.27
2018-12-30T07:29:31.829Z,16.10
2018-12-30T07:31:58.200Z,14.87
2018-12-30T07:34:24.760Z,18.47
2018-12-30T07:36:51.237Z,18.03
2018-12-30T07:39:17.711Z,18.83
2018-12-30T07:41:44.200Z,16.30
2018-12-30T07:44:11.695Z,18.90
2018-12-30T07:46:38.343Z,16.23
2018-12-30T07:49:04.911Z,12.67
2018-12-30T07:51:31.361Z,20.83
2018-12-30T07:53:57.748Z,14.30
2018-12-30T07:56:24.224Z,16.63
2018-12-30T07:58:50.572Z,15.73
2018-12-30T08:01:17.040Z,10.17
2018-12-30T08:03:43.630Z,22.77
2018-12-30T08:06:10.045Z,12.87
2018-12-30T08:08:36.572Z,15.87
2018-12-30T08:11:02.966Z,17.60
2018-12-30T08:13:29.395Z,11.70
2018-12-30T08:15:55.746Z,13.13
2018-12-30T08:18:22.224Z,15.23
2018-12-30T08:20:48.675Z,14.40
2018-12-30T08:23:21.368Z,11.63
2018-12-30T08:25:43.463Z,10.17
2018-12-30T08:28:09.913Z,14.17
2018-12-30T08:30:36.259Z,9.70
2018-12-30T08:33:02.740Z,12.43
2018-12-30T08:35:29.132Z,7.13
2018-12-30T08:37:55.496Z,12.53
2018-12-30T08:40:21.956Z,11.10
2018-12-30T08:42:48.531Z,12.10
2018-12-30T08:45:15.896Z,10.27
2018-12-30T08:47:42.471Z,10.03
2018-12-30T08:50:08.920Z,12.43
2018-12-30T08:52:35.392Z,7.63
2018-12-30T08:55:01.843Z,13.00
2018-12-30T08:57:28.215Z,14.97
2018-12-30T08:59:54.668Z,13.00
2018-12-30T09:02:21.127Z,16.23
2018-12-30T09:04:47.521Z,10.30
2018-12-30T09:07:14.072Z,16.43
2018-12-30T09:09:40.752Z,11.50
2018-12-30T09:12:07.313Z,9.47
2018-12-30T09:14:33.827Z,13.53
2018-12-30T09:17:00.460Z,13.27
2018-12-30T09:19:26.926Z,14.27
2018-12-30T09:21:53.278Z,19.13
2018-12-30T09:24:19.645Z,16.63
2018-12-30T09:26:46.099Z,13.30
2018-12-30T09:29:12.494Z,10.10
2018-12-30T09:31:38.941Z,12.80
2018-12-30T09:34:05.536Z,11.47
2018-12-30T09:36:31.989Z,12.90
2018-12-30T09:38:58.568Z,11.77
2018-12-30T09:41:24.923Z,13.03
2018-12-30T09:43:51.399Z,10.97
2018-12-30T09:46:17.845Z,9.53
2018-12-30T09:48:44.317Z,13.63
2018-12-30T09:51:10.760Z,13.37
2018-12-30T09:53:44.962Z,16.47
2018-12-30T09:56:05.619Z,12.73
2018-12-30T09:58:32.084Z,9.40
2018-12-30T10:00:58.636Z,9.50
2018-12-30T10:03:25.140Z,14.20
2018-12-30T10:05:51.533Z,7.50
2018-12-30T10:08:18.079Z,9.73
2018-12-30T10:10:44.547Z,8.27
2018-12-30T10:13:11.000Z,8.37
2018-12-30T10:15:37.481Z,11.13
2018-12-30T10:18:03.927Z,9.37
2018-12-30T10:20:30.397Z,10.63
2018-12-30T10:22:58.850Z,8.27
2018-12-30T10:25:25.143Z,9.93
2018-12-30T10:27:51.700Z,10.33
2018-12-30T10:30:18.177Z,11.53
2018-12-30T10:32:44.624Z,10.87
2018-12-30T10:35:11.101Z,10.47
2018-12-30T10:37:37.707Z,10.27
2018-12-30T10:40:04.285Z,16.87
2018-12-30T10:42:30.844Z,11.03
2018-12-30T10:44:57.445Z,12.30
2018-12-30T10:47:23.872Z,14.30
2018-12-30T10:49:50.363Z,12.83
2018-12-30T10:52:16.888Z,14.17
2018-12-30T10:54:43.240Z,13.97
2018-12-30T10:57:09.808Z,12.77
2018-12-30T10:59:36.364Z,10.47
2018-12-30T11:02:02.944Z,9.73
2018-12-30T11:04:29.438Z,12.23
2018-12-30T11:06:55.828Z,13.43
2018-12-30T11:09:22.286Z,11.80
2018-12-30T11:11:48.876Z,12.07
2018-12-30T11:14:15.336Z,10.63
2018-12-30T11:16:41.818Z,7.97
2018-12-30T11:19:08.165Z,10.33
2018-12-30T11:21:34.640Z,10.37
2018-12-30T11:24:08.344Z,6.50
2018-12-30T11:26:29.564Z,5.67
2018-12-30T11:28:56.017Z,5.87
2018-12-30T11:31:22.496Z,7.73
2018-12-30T11:33:49.056Z,7.80
2018-12-30T11:36:15.529Z,7.47
2018-12-30T11:38:42.092Z,7.17
2018-12-30T11:41:08.576Z,9.30
2018-12-30T11:43:35.023Z,9.73
2018-12-30T11:46:01.603Z,9.30
2018-12-30T11:48:28.159Z,8.63
2018-12-30T11:50:54.522Z,8.53
2018-12-30T11:53:20.992Z,7.97
2018-12-30T11:55:47.462Z,7.67
2018-12-30T11:58:13.832Z,9.07
2018-12-30T12:00:40.280Z,10.10
2018-12-30T12:03:06.860Z,11.33
2018-12-30T12:05:33.260Z,5.53
2018-12-30T12:07:59.843Z,10.03
2018-12-30T12:10:26.371Z,7.80
2018-12-30T12:12:52.968Z,9.63
2018-12-30T12:15:19.423Z,10.40
2018-12-30T12:17:45.879Z,8.43
2018-12-30T12:20:12.352Z,6.40
2018-12-30T12:22:38.760Z,12.77
2018-12-30T12:25:05.346Z,10.23
2018-12-30T12:27:31.923Z,8.83
2018-12-30T12:29:58.409Z,9.73
2018-12-30T12:32:24.883Z,11.67
2018-12-30T12:34:51.368Z,9.30
2018-12-30T12:37:17.839Z,13.57
2018-12-30T12:39:44.339Z,12.00
2018-12-30T12:42:10.816Z,11.53
2018-12-30T12:44:37.432Z,11.10
2018-12-30T12:47:03.995Z,14.03
2018-12-30T12:49:30.476Z,10.90
2018-12-30T12:51:56.836Z,13.87
2018-12-30T12:54:23.256Z,14.27
2018-12-30T12:56:49.718Z,14.13
2018-12-30T12:59:16.281Z,11.87
2018-12-30T13:01:42.676Z,13.50
2018-12-30T13:04:09.185Z,15.63
2018-12-30T13:06:35.772Z,11.67
2018-12-30T13:09:04.194Z,13.90
2018-12-30T13:11:31.852Z,15.50
2018-12-30T13:13:58.416Z,11.60
2018-12-30T13:16:24.792Z,13.53
2018-12-30T13:18:51.164Z,13.77
2018-12-30T13:21:17.651Z,11.70
2018-12-30T13:23:44.108Z,11.07
2018-12-30T13:26:10.593Z,13.57
2018-12-30T13:28:37.162Z,12.47
2018-12-30T13:31:03.906Z,14.83
2018-12-30T13:33:30.380Z,12.17
2018-12-30T13:35:56.750Z,16.80
2018-12-30T13:38:28.340Z,7.50
2018-12-30T13:40:51.803Z,13.63
2018-12-30T13:43:18.181Z,13.37
2018-12-30T13:45:44.648Z,8.93
2018-12-30T13:48:11.133Z,9.63
2018-12-30T13:50:37.615Z,10.17
2018-12-30T13:53:04.019Z,8.80
2018-12-30T13:55:30.576Z,10.47
2018-12-30T13:57:57.187Z,9.27
2018-12-30T14:00:23.742Z,14.00
2018-12-30T14:02:50.240Z,6.83
2018-12-30T14:05:16.840Z,11.40
2018-12-30T14:07:43.428Z,12.00
2018-12-30T14:10:09.817Z,10.90
2018-12-30T14:12:36.209Z,10.93
2018-12-30T14:15:03.501Z,15.27
2018-12-30T14:17:30.053Z,11.87
2018-12-30T14:19:56.637Z,11.53
2018-12-30T14:22:23.111Z,12.37
2018-12-30T14:24:55.308Z,13.23
2018-12-30T14:27:18.060Z,10.97
2018-12-30T14:29:44.645Z,12.10
2018-12-30T14:32:11.103Z,14.40
2018-12-30T14:34:37.709Z,12.07
2018-12-30T14:37:04.173Z,10.93
2018-12-30T14:39:30.672Z,14.17
2018-12-30T14:41:57.144Z,13.93
2018-12-30T14:44:23.556Z,10.40
2018-12-30T14:46:50.126Z,12.53
2018-12-30T14:49:16.737Z,17.20
2018-12-30T14:51:43.193Z,19.43
2018-12-30T14:54:09.682Z,14.00
2018-12-30T14:56:36.153Z,12.50
2018-12-30T14:59:02.645Z,15.67
2018-12-30T15:01:29.011Z,13.60
2018-12-30T15:03:55.537Z,10.07
2018-12-30T15:06:22.092Z,17.27
2018-12-30T15:08:48.574Z,14.27
2018-12-30T15:11:15.060Z,12.67
2018-12-30T15:13:41.760Z,15.23
2018-12-30T15:16:08.349Z,17.00
2018-12-30T15:18:34.741Z,15.50
2018-12-30T15:21:01.231Z,15.20
2018-12-30T15:23:27.597Z,15.27
2018-12-30T15:25:54.109Z,13.10
2018-12-30T15:28:20.496Z,13.47
2018-12-30T15:30:47.084Z,13.17
2018-12-30T15:33:13.556Z,16.23
2018-12-30T15:35:39.948Z,18.90
2018-12-30T15:38:06.769Z,11.00
2018-12-30T15:40:33.255Z,11.10
2018-12-30T15:43:00.384Z,18.07
2018-12-30T15:45:26.880Z,16.17
2018-12-30T15:47:53.438Z,19.93
2018-12-30T15:50:19.935Z,14.03
2018-12-30T15:52:46.361Z,15.27
2018-12-30T15:55:19.363Z,13.60
2018-12-30T15:57:41.374Z,16.77
2018-12-30T16:00:08.241Z,13.67
2018-12-30T16:02:34.623Z,14.03
2018-12-30T16:05:01.483Z,15.40
2018-12-30T16:07:27.864Z,17.77
2018-12-30T16:09:54.234Z,15.97
2018-12-30T16:12:20.717Z,17.57
2018-12-30T16:14:47.184Z,18.57
2018-12-30T16:17:13.689Z,13.13
2018-12-30T16:19:40.096Z,17.93
2018-12-30T16:22:06.584Z,17.17
2018-12-30T16:24:33.061Z,16.53
2018-12-30T16:26:59.465Z,13.23
2018-12-30T16:29:25.925Z,15.33
2018-12-30T16:31:52.330Z,20.17
2018-12-30T16:34:18.793Z,15.77
2018-12-30T16:36:45.304Z,20.07
2018-12-30T16:39:11.942Z,22.77
2018-12-30T16:41:38.638Z,14.80
2018-12-30T16:44:05.036Z,14.83
2018-12-30T16:46:31.629Z,13.63
2018-12-30T16:48:58.101Z,13.83
2018-12-30T16:51:24.900Z,15.10
2018-12-30T16:53:51.364Z,14.97
2018-12-30T16:56:17.832Z,16.23
2018-12-30T16:58:44.400Z,21.77
2018-12-30T17:01:10.978Z,17.10
2018-12-30T17:03:37.452Z,20.37
2018-12-30T17:06:03.930Z,24.40
2018-12-30T17:08:30.409Z,22.27
2018-12-30T17:10:56.988Z,18.00
2018-12-30T17:13:23.386Z,15.97
2018-12-30T17:15:50.136Z,19.47
2018-12-30T17:18:16.710Z,15.13
2018-12-30T17:20:43.176Z,17.57
2018-12-30T17:23:09.665Z,17.70
2018-12-30T17:25:42.827Z,14.90
2018-12-30T17:28:04.463Z,14.23
2018-12-30T17:30:31.028Z,12.67
2018-12-30T17:32:57.628Z,14.77
2018-12-30T17:35:24.112Z,17.67
2018-12-30T17:37:50.596Z,16.03
2018-12-30T17:40:17.172Z,14.10
2018-12-30T17:42:43.666Z,10.80
2018-12-30T17:45:10.132Z,11.03
2018-12-30T17:47:36.612Z,12.63
2018-12-30T17:50:04.783Z,10.43
2018-12-30T17:52:31.277Z,11.13
2018-12-30T17:54:57.677Z,15.50
2018-12-30T17:57:24.144Z,11.90
2018-12-30T17:59:50.522Z,11.03
2018-12-30T18:02:16.925Z,9.30
2018-12-30T18:04:43.445Z,13.17
2018-12-30T18:07:09.841Z,11.63
2018-12-30T18:09:36.338Z,12.77
2018-12-30T18:12:02.889Z,11.30
2018-12-30T18:14:29.372Z,13.13
2018-12-30T18:16:55.960Z,13.93
2018-12-30T18:19:22.364Z,22.50
2018-12-30T18:21:48.829Z,16.37
2018-12-30T18:24:15.331Z,12.97
2018-12-30T18:26:41.798Z,13.80
2018-12-30T18:29:08.185Z,12.90
2018-12-30T18:31:34.775Z,12.67
2018-12-30T18:34:01.316Z,16.00
2018-12-30T18:36:27.707Z,18.00
2018-12-30T18:38:54.303Z,16.30
2018-12-30T18:41:20.660Z,13.07
2018-12-30T18:43:47.209Z,15.60
2018-12-30T18:46:13.680Z,17.87
2018-12-30T18:48:40.164Z,13.50
2018-12-30T18:51:06.780Z,16.37
2018-12-30T18:53:33.341Z,18.57
2018-12-30T18:56:06.486Z,19.63
2018-12-30T18:58:28.086Z,17.17
2018-12-30T19:00:54.689Z,16.90
2018-12-30T19:03:21.189Z,15.17
2018-12-30T19:05:47.653Z,20.80
2018-12-30T19:08:14.028Z,17.97
2018-12-30T19:10:40.517Z,20.80
2018-12-30T19:13:07.093Z,18.60
2018-12-30T19:15:34.692Z,22.67
2018-12-30T19:18:01.185Z,20.27
2018-12-30T19:20:27.664Z,19.93
2018-12-30T19:22:54.053Z,18.47
2018-12-30T19:25:20.445Z,17.43
2018-12-30T19:27:46.833Z,22.97
2018-12-30T19:30:13.311Z,25.73
2018-12-30T19:32:39.685Z,26.60
2018-12-30T19:35:06.078Z,27.47
2018-12-30T19:37:32.438Z,21.03
2018-12-30T19:39:58.870Z,23.10
2018-12-30T19:42:25.244Z,23.83
2018-12-30T19:44:51.839Z,27.27
2018-12-30T19:47:18.323Z,23.80
2018-12-30T19:49:44.891Z,21.80
2018-12-30T19:52:11.285Z,20.20
2018-12-30T19:54:37.756Z,25.93
2018-12-30T19:57:04.229Z,26.20
2018-12-30T19:59:30.692Z,25.50
2018-12-30T20:01:57.188Z,24.23
2018-12-30T20:04:23.677Z,26.33
2018-12-30T20:06:50.260Z,24.90
2018-12-30T20:09:16.728Z,19.07
2018-12-30T20:11:43.202Z,21.10
2018-12-30T20:14:09.664Z,24.37
2018-12-30T20:16:36.168Z,21.97
2018-12-30T20:19:02.745Z,33.10
2018-12-30T20:21:29.260Z,24.30
2018-12-30T20:23:55.653Z,27.43
2018-12-30T20:26:29.614Z,24.87
2018-12-30T20:28:50.520Z,28.30
2018-12-30T20:31:17.100Z,32.67
2018-12-30T20:33:43.519Z,25.50
2018-12-30T20:36:09.997Z,26.90
2018-12-30T20:38:36.599Z,27.27
2018-12-30T20:41:03.173Z,23.73
2018-12-30T20:43:29.682Z,24.93
2018-12-30T20:45:56.101Z,27.80
2018-12-30T20:48:22.613Z,25.63
2018-12-30T20:50:49.102Z,25.10
2018-12-30T20:53:15.562Z,26.60
2018-12-30T20:55:42.037Z,27.13
2018-12-30T20:58:08.471Z,27.17
2018-12-30T21:00:34.946Z,27.83
2018-12-30T21:03:01.578Z,30.23
2018-12-30T21:05:28.094Z,29.67
2018-12-30T21:07:54.713Z,30.20
2018-12-30T21:10:21.201Z,29.33
2018-12-30T21:12:47.616Z,33.90
2018-12-30T21:15:14.008Z,25.80
2018-12-30T21:17:40.512Z,29.50
2018-12-30T21:20:07.160Z,27.60
2018-12-30T21:22:38.750Z,30.43
2018-12-30T21:25:05.292Z,32.57
2018-12-30T21:27:32.354Z,27.03
2018-12-30T21:29:58.865Z,32.70
2018-12-30T21:32:25.340Z,30.90
2018-12-30T21:34:51.846Z,29.23
2018-12-30T21:37:18.218Z,29.10
2018-12-30T21:39:44.721Z,36.50
2018-12-30T21:42:11.194Z,29.17
2018-12-30T21:44:37.696Z,30.30
2018-12-30T21:47:04.183Z,27.63
2018-12-30T21:49:30.691Z,29.43
2018-12-30T21:51:57.105Z,31.27
2018-12-30T21:54:23.603Z,32.33
2018-12-30T21:56:54.742Z,29.37
2018-12-30T21:59:18.582Z,28.83
2018-12-30T22:01:45.074Z,28.10
2018-12-30T22:04:11.621Z,30.67
2018-12-30T22:06:38.205Z,32.87
2018-12-30T22:09:05.161Z,31.40
2018-12-30T22:11:31.742Z,31.40
2018-12-30T22:13:58.333Z,30.77
2018-12-30T22:16:24.932Z,28.93
2018-12-30T22:18:51.505Z,31.53
2018-12-30T22:21:18.021Z,29.57
2018-12-30T22:23:44.506Z,28.10
2018-12-30T22:26:10.997Z,27.77
2018-12-30T22:28:37.482Z,30.57
2018-12-30T22:31:03.992Z,27.07
2018-12-30T22:33:30.477Z,27.33
2018-12-30T22:35:56.994Z,32.67
2018-12-30T22:38:23.384Z,37.23
2018-12-30T22:40:49.972Z,29.83
2018-12-30T22:43:16.349Z,26.60
2018-12-30T22:45:42.957Z,28.07
2018-12-30T22:48:09.428Z,31.07
2018-12-30T22:50:36.202Z,26.33
2018-12-30T22:53:02.783Z,32.00
2018-12-30T22:55:29.284Z,32.27
2018-12-30T22:57:55.864Z,29.83
2018-12-30T23:00:24.152Z,31.73
2018-12-30T23:02:50.575Z,32.03
2018-12-30T23:05:17.503Z,29.10
2018-12-30T23:07:43.901Z,29.90
2018-12-30T23:10:10.318Z,27.97
2018-12-30T23:12:36.910Z,29.77
2018-12-30T23:15:03.500Z,34.33
2018-12-30T23:17:30.000Z,30.97
2018-12-30T23:19:56.481Z,35.23
2018-12-30T23:22:22.901Z,27.77
2018-12-30T23:24:49.381Z,28.33
2018-12-30T23:27:15.914Z,30.43
2018-12-30T23:29:42.392Z,23.73
2018-12-30T23:32:08.967Z,29.40
2018-12-30T23:34:35.364Z,26.10
2018-12-30T23:37:01.862Z,26.97
2018-12-30T23:39:28.332Z,27.53
2018-12-30T23:41:54.730Z,26.47
2018-12-30T23:44:21.332Z,25.73
2018-12-30T23:46:47.761Z,29.67
2018-12-30T23:49:14.250Z,27.07
2018-12-30T23:51:40.828Z,26.07
2018-12-30T23:54:07.322Z,28.60
2018-12-30T23:56:33.808Z,25.03
2018-12-30T23:59:00.306Z,27.17
